createdAt,value
2022-09-07T00:00:46.152Z,25.00
2022-09-07T00:03:15.591Z,28.58
2022-09-07T00:05:46.618Z,19.15
2022-09-07T00:08:17.370Z,23.80
2022-09-07T00:10:58.543Z,23.42
2022-09-07T00:13:31.225Z,26.27
2022-09-07T00:16:00.672Z,25.08
2022-09-07T00:18:29.804Z,24.13
2022-09-07T00:21:05.145Z,29.50
2022-09-07T00:23:36.502Z,23.33
2022-09-07T00:26:08.669Z,21.80
2022-09-07T00:28:38.591Z,28.25
2022-09-07T00:31:13.790Z,31.80
2022-09-07T00:33:43.478Z,33.30
2022-09-07T00:36:12.970Z,28.02
2022-09-07T00:38:42.129Z,32.13
2022-09-07T00:41:12.420Z,26.15
2022-09-07T00:43:47.543Z,24.45
2022-09-07T00:46:25.408Z,34.80
2022-09-07T00:49:22.673Z,42.90
2022-09-07T00:51:59.986Z,44.72
2022-09-07T00:54:35.856Z,27.80
2022-09-07T00:57:05.625Z,33.08
2022-09-07T00:59:51.449Z,29.15
2022-09-07T01:02:21.718Z,30.75
2022-09-07T01:04:54.243Z,34.53
2022-09-07T01:07:23.336Z,29.02
2022-09-07T01:09:53.664Z,29.85
2022-09-07T01:12:23.163Z,29.02
2022-09-07T01:14:54.814Z,43.70
2022-09-07T01:17:23.804Z,26.58
2022-09-07T01:20:11.582Z,28.45
2022-09-07T01:22:57.299Z,49.08
2022-09-07T01:25:52.021Z,34.55
2022-09-07T01:28:23.929Z,23.98
2022-09-07T01:31:13.183Z,35.45
2022-09-07T01:34:11.821Z,28.58
2022-09-07T01:36:52.910Z,37.03
2022-09-07T01:39:26.359Z,31.50
2022-09-07T01:42:14.774Z,33.30
2022-09-07T01:44:59.949Z,25.92
2022-09-07T01:47:41.520Z,22.42
2022-09-07T01:50:22.689Z,30.98
2022-09-07T01:53:04.331Z,21.02
2022-09-07T01:55:43.094Z,33.70
2022-09-07T01:58:40.007Z,31.92
2022-09-07T02:01:34.988Z,25.85
2022-09-07T02:04:21.682Z,21.45
2022-09-07T02:06:50.998Z,18.33
2022-09-07T02:09:36.559Z,20.17
2022-09-07T02:12:16.530Z,20.60
2022-09-07T02:14:52.813Z,19.05
2022-09-07T02:17:35.364Z,21.80
2022-09-07T02:20:27.950Z,18.05
2022-09-07T02:23:00.970Z,15.23
2022-09-07T02:25:42.121Z,15.83
2022-09-07T02:28:15.617Z,18.73
2022-09-07T02:30:45.310Z,15.88
2022-09-07T02:33:14.847Z,17.15
2022-09-07T02:35:44.057Z,17.15
2022-09-07T02:38:13.245Z,22.95
2022-09-07T02:40:42.376Z,19.83
2022-09-07T02:43:13.153Z,30.00
2022-09-07T02:45:59.264Z,21.38
2022-09-07T02:49:12.839Z,20.08
2022-09-07T02:51:53.565Z,20.95
2022-09-07T02:54:50.934Z,19.23
2022-09-07T02:57:41.509Z,17.90
2022-09-07T03:00:19.069Z,19.42
2022-09-07T03:02:48.201Z,20.77
2022-09-07T03:05:30.306Z,18.85
2022-09-07T03:08:07.339Z,20.52
2022-09-07T04:03:31.315Z,22.30
2022-09-07T04:06:01.759Z,21.42
2022-09-07T04:08:33.367Z,19.38
2022-09-07T04:11:06.636Z,15.90
2022-09-07T04:13:37.608Z,14.57
2022-09-07T04:16:23.767Z,13.15
2022-09-07T04:18:55.877Z,16.60
2022-09-07T04:21:27.171Z,23.25
2022-09-07T04:23:59.818Z,14.63
2022-09-07T04:26:31.584Z,14.37
2022-09-07T04:29:05.249Z,22.85
2022-09-07T04:31:36.607Z,17.70
2022-09-07T04:34:07.204Z,17.05
2022-09-07T04:36:37.001Z,15.45
2022-09-07T04:39:07.493Z,12.80
2022-09-07T04:41:36.890Z,14.00
2022-09-07T04:44:06.611Z,14.55
2022-09-07T04:46:37.842Z,14.40
2022-09-07T04:49:13.453Z,13.88
2022-09-07T04:51:45.768Z,13.55
2022-09-07T04:54:15.113Z,14.90
2022-09-07T04:56:44.434Z,17.73
2022-09-07T04:59:13.896Z,16.75
2022-09-07T05:01:43.322Z,19.52
2022-09-07T05:04:12.805Z,14.32
2022-09-07T05:06:42.217Z,18.40
2022-09-07T05:09:12.554Z,20.20
2022-09-07T05:11:41.982Z,14.23
2022-09-07T05:14:12.569Z,13.45
2022-09-07T05:16:41.919Z,13.35
2022-09-07T05:19:14.413Z,15.45
2022-09-07T05:21:43.790Z,12.52
2022-09-07T05:24:13.117Z,12.65
2022-09-07T05:26:42.428Z,16.90
2022-09-07T05:32:02.695Z,12.95
2022-09-07T05:34:32.522Z,16.13
2022-09-07T05:37:02.490Z,12.27
2022-09-07T05:39:32.180Z,14.38
2022-09-07T05:42:01.599Z,15.68
2022-09-07T05:44:48.107Z,12.18
2022-09-07T05:47:17.562Z,12.52
2022-09-07T05:49:46.906Z,12.88
2022-09-07T05:52:16.363Z,12.07
2022-09-07T05:54:45.434Z,18.27
2022-09-07T05:57:14.781Z,13.05
2022-09-07T05:59:43.947Z,12.40
2022-09-07T06:02:16.907Z,12.15
2022-09-07T06:04:46.020Z,16.30
2022-09-07T06:07:21.720Z,14.45
2022-09-07T06:12:42.525Z,12.38
2022-09-07T06:15:14.063Z,13.98
2022-09-07T06:17:43.129Z,13.43
2022-09-07T06:20:12.625Z,15.32
2022-09-07T06:22:41.761Z,23.58
2022-09-07T06:25:11.059Z,13.57
2022-09-07T06:27:40.126Z,17.85
2022-09-07T06:30:09.658Z,14.15
2022-09-07T06:35:12.468Z,16.07
2022-09-07T06:37:42.062Z,14.15
2022-09-07T06:40:14.344Z,15.57
2022-09-07T06:42:43.382Z,12.85
2022-09-07T06:45:12.749Z,13.20
2022-09-07T06:47:42.064Z,20.10
2022-09-07T06:50:11.875Z,14.55
2022-09-07T06:55:30.849Z,14.35
2022-09-07T06:58:00.167Z,15.73
2022-09-07T07:00:29.560Z,21.92
2022-09-07T07:02:59.001Z,12.45
2022-09-07T07:05:28.412Z,11.23
2022-09-07T07:07:57.785Z,11.48
2022-09-07T07:10:27.250Z,13.88
2022-09-07T07:13:02.093Z,11.32
2022-09-07T07:15:32.396Z,12.57
2022-09-07T07:18:14.815Z,12.65
2022-09-07T07:20:49.516Z,13.48
2022-09-07T07:23:18.904Z,12.13
2022-09-07T07:25:48.225Z,12.75
2022-09-07T07:31:12.946Z,14.85
2022-09-07T07:33:42.823Z,14.83
2022-09-07T07:36:18.293Z,11.70
2022-09-07T07:39:05.090Z,11.95
2022-09-07T07:44:24.141Z,16.63
2022-09-07T07:46:53.610Z,12.68
2022-09-07T07:49:22.994Z,13.43
2022-09-07T07:54:44.917Z,13.30
2022-09-07T07:57:14.606Z,13.88
2022-09-07T07:59:43.847Z,11.23
2022-09-07T08:02:18.009Z,13.65
2022-09-07T08:04:47.365Z,14.52
2022-09-07T08:07:17.313Z,14.13
2022-09-07T08:09:48.686Z,11.80
2022-09-07T08:12:20.721Z,11.15
2022-09-07T08:14:50.583Z,20.42
2022-09-07T08:17:20.199Z,15.25
2022-09-07T08:19:49.587Z,18.63
2022-09-07T08:22:19.053Z,13.77
2022-09-07T08:24:48.365Z,14.13
2022-09-07T08:27:21.867Z,17.13
2022-09-07T08:29:55.007Z,15.73
2022-09-07T08:32:24.348Z,14.98
2022-09-07T08:34:53.752Z,16.90
2022-09-07T08:37:23.284Z,12.70
2022-09-07T08:39:52.657Z,11.43
2022-09-07T08:42:47.552Z,16.30
2022-09-07T08:45:33.082Z,13.52
2022-09-07T08:48:02.944Z,13.43
2022-09-07T08:50:47.506Z,14.15
2022-09-07T08:53:21.611Z,13.38
2022-09-07T08:55:59.779Z,13.23
2022-09-07T08:58:50.704Z,12.35
2022-09-07T09:01:33.994Z,14.57
2022-09-07T09:04:20.218Z,20.70
2022-09-07T09:06:50.496Z,17.98
2022-09-07T09:09:31.789Z,16.65
2022-09-07T09:12:19.525Z,16.13
2022-09-07T09:15:19.440Z,14.40
2022-09-07T09:18:28.241Z,18.08
2022-09-07T09:20:59.280Z,19.55
2022-09-07T09:23:35.959Z,17.65
2022-09-07T09:26:11.669Z,21.20
2022-09-07T09:28:41.309Z,19.00
2022-09-07T09:31:22.368Z,17.88
2022-09-07T09:34:16.282Z,18.33
2022-09-07T09:36:56.982Z,21.73
2022-09-07T09:39:35.408Z,17.25
2022-09-07T09:42:14.029Z,17.15
2022-09-07T09:44:44.300Z,15.88
2022-09-07T09:47:37.181Z,17.08
2022-09-07T09:53:34.723Z,19.17
2022-09-07T09:56:05.968Z,14.13
2022-09-07T10:01:35.513Z,14.20
2022-09-07T10:04:31.429Z,17.65
2022-09-07T10:07:15.705Z,16.75
2022-09-07T10:09:51.484Z,21.75
2022-09-07T10:12:36.328Z,22.38
2022-09-07T10:15:08.336Z,19.77
2022-09-07T10:17:44.234Z,21.27
2022-09-07T10:20:18.608Z,16.75
2022-09-07T10:22:56.358Z,17.88
2022-09-07T10:25:43.013Z,16.88
2022-09-07T10:28:15.165Z,21.33
2022-09-07T10:31:32.823Z,20.27
2022-09-07T10:34:28.950Z,23.30
2022-09-07T10:37:09.966Z,16.40
2022-09-07T10:39:50.200Z,15.40
2022-09-07T10:42:34.805Z,18.63
2022-09-07T10:45:20.782Z,20.38
2022-09-07T10:48:08.166Z,16.33
2022-09-07T10:50:54.533Z,19.73
2022-09-07T10:53:43.135Z,19.35
2022-09-07T10:56:39.143Z,18.77
2022-09-07T10:59:14.356Z,20.08
2022-09-07T11:01:54.532Z,18.35
2022-09-07T11:04:55.886Z,19.13
2022-09-07T11:07:27.937Z,19.98
2022-09-07T11:10:01.506Z,19.73
2022-09-07T11:12:37.528Z,25.38
2022-09-07T11:15:15.718Z,21.77
2022-09-07T11:18:02.723Z,20.50
2022-09-07T11:21:00.084Z,24.10
2022-09-07T11:23:40.388Z,20.45
2022-09-07T11:26:20.722Z,18.58
2022-09-07T11:32:10.844Z,18.20
2022-09-07T11:34:45.148Z,16.65
2022-09-07T11:37:34.112Z,18.55
2022-09-07T11:40:17.806Z,15.85
2022-09-07T11:43:23.097Z,20.63
2022-09-07T11:46:01.384Z,19.05
2022-09-07T11:48:53.800Z,19.73
2022-09-07T11:51:43.463Z,25.08
2022-09-07T11:54:29.824Z,18.92
2022-09-07T11:57:22.078Z,18.23
2022-09-07T12:00:12.222Z,20.48
2022-09-07T12:03:08.785Z,22.27
2022-09-07T12:05:42.687Z,18.75
2022-09-07T12:08:40.983Z,25.50
2022-09-07T12:11:23.480Z,18.33
2022-09-07T12:14:38.627Z,21.08
2022-09-07T12:17:19.890Z,19.58
2022-09-07T12:20:12.746Z,17.98
2022-09-07T12:23:00.940Z,22.92
2022-09-07T12:25:35.549Z,22.65
2022-09-07T12:28:05.146Z,25.20
2022-09-07T12:30:37.638Z,20.42
2022-09-07T12:33:22.670Z,22.48
2022-09-07T12:35:52.141Z,25.42
2022-09-07T12:38:21.411Z,20.50
2022-09-07T12:41:01.188Z,20.42
2022-09-07T12:43:35.494Z,21.73
2022-09-07T12:46:05.150Z,21.67
2022-09-07T12:48:37.220Z,19.17
2022-09-07T12:51:06.307Z,18.65
2022-09-07T12:53:59.738Z,21.33
2022-09-07T13:00:19.402Z,23.50
2022-09-07T13:05:56.438Z,23.65
2022-09-07T13:08:56.129Z,19.48
2022-09-07T13:11:31.715Z,20.83
2022-09-07T13:14:09.411Z,23.38
2022-09-07T13:19:48.534Z,22.25
2022-09-07T13:22:32.728Z,23.63
2022-09-07T13:25:21.868Z,23.52
2022-09-07T13:28:05.962Z,23.65
2022-09-07T13:30:54.690Z,23.85
2022-09-07T13:33:27.258Z,27.27
2022-09-07T13:36:17.410Z,22.73
2022-09-07T13:38:46.748Z,22.90
2022-09-07T13:41:19.988Z,23.05
2022-09-07T13:44:01.010Z,24.23
2022-09-07T13:46:51.356Z,20.92
2022-09-07T13:49:38.367Z,25.88
2022-09-07T13:52:30.698Z,22.92
2022-09-07T13:55:02.747Z,24.35
2022-09-07T13:57:52.023Z,21.92
2022-09-07T14:00:21.408Z,24.50
2022-09-07T14:02:57.031Z,25.35
2022-09-07T14:05:26.589Z,22.88
2022-09-07T14:07:55.649Z,29.33
2022-09-07T14:10:27.360Z,29.30
2022-09-07T14:13:13.374Z,26.50
2022-09-07T14:15:50.669Z,28.67
2022-09-07T14:18:34.059Z,25.15
2022-09-07T14:21:03.105Z,26.47
2022-09-07T14:23:36.803Z,26.10
2022-09-07T14:26:16.978Z,27.08
2022-09-07T14:28:54.816Z,27.00
2022-09-07T14:31:26.551Z,25.90
2022-09-07T14:34:00.741Z,28.65
2022-09-07T14:36:45.686Z,29.33
2022-09-07T14:39:17.684Z,28.75
2022-09-07T14:41:47.423Z,31.63
2022-09-07T14:44:39.019Z,29.60
2022-09-07T14:47:30.247Z,28.30
2022-09-07T14:50:06.861Z,33.65
2022-09-07T14:52:44.135Z,35.22
2022-09-07T14:55:43.540Z,35.13
2022-09-07T14:58:15.965Z,38.97
2022-09-07T15:01:36.718Z,31.77
2022-09-07T15:03:59.024Z,33.85
2022-09-07T15:09:37.780Z,34.55
2022-09-07T15:12:33.071Z,30.92
2022-09-07T15:15:37.683Z,35.05
2022-09-07T15:18:43.606Z,32.80
2022-09-07T15:21:13.030Z,28.52
2022-09-07T15:23:42.299Z,34.83
2022-09-07T15:27:02.016Z,30.60
2022-09-07T15:29:11.039Z,31.27
2022-09-07T15:31:43.357Z,26.80
2022-09-07T15:34:17.279Z,25.00
2022-09-07T15:36:54.079Z,24.60
2022-09-07T15:39:26.743Z,26.13
2022-09-07T15:41:56.733Z,24.55
2022-09-07T15:44:28.030Z,25.63
2022-09-07T15:49:51.366Z,25.00
2022-09-07T15:52:21.066Z,26.13
2022-09-07T15:54:50.371Z,23.77
2022-09-07T16:00:09.550Z,25.38
2022-09-07T16:05:31.328Z,25.42
2022-09-07T16:10:55.694Z,27.13
2022-09-07T16:13:25.410Z,22.02
2022-09-07T16:15:59.533Z,23.83
2022-09-07T16:18:31.256Z,25.17
2022-09-07T16:21:11.497Z,26.33
2022-09-07T16:23:46.465Z,24.67
2022-09-07T16:26:16.490Z,28.88
2022-09-07T16:28:49.927Z,28.98
2022-09-07T16:31:23.025Z,27.02
2022-09-07T16:33:52.810Z,26.83
2022-09-07T16:36:25.757Z,27.80
2022-09-07T16:39:00.609Z,26.40
2022-09-07T16:41:35.786Z,29.15
2022-09-07T16:44:05.230Z,31.38
2022-09-07T16:46:37.564Z,30.48
2022-09-07T16:49:08.350Z,32.25
2022-09-07T16:51:38.422Z,28.88
2022-09-07T16:54:09.360Z,30.33
2022-09-07T16:56:39.305Z,28.98
2022-09-07T16:59:12.677Z,30.02
2022-09-07T17:01:42.103Z,31.63
2022-09-07T17:04:11.836Z,30.92
2022-09-07T17:06:41.936Z,35.50
2022-09-07T17:09:12.217Z,29.10
2022-09-07T17:11:41.993Z,30.60
2022-09-07T17:14:11.502Z,26.98
2022-09-07T17:16:42.473Z,25.98
2022-09-07T17:19:30.053Z,27.45
2022-09-07T17:22:00.885Z,29.17
2022-09-07T17:24:32.338Z,29.23
2022-09-07T17:27:02.618Z,27.58
2022-09-07T17:29:37.606Z,30.45
2022-09-07T17:32:24.637Z,25.92
2022-09-07T17:34:56.439Z,27.73
2022-09-07T17:37:25.997Z,27.10
2022-09-07T17:39:56.676Z,25.17
2022-09-07T17:43:38.864Z,28.40
2022-09-07T17:45:18.482Z,26.33
2022-09-07T17:47:50.583Z,25.40
2022-09-07T17:50:19.644Z,29.25
2022-09-07T17:52:53.016Z,29.35
2022-09-07T17:55:22.245Z,32.80
2022-09-07T17:57:51.322Z,34.67
2022-09-07T18:00:20.381Z,41.75
2022-09-07T18:02:49.465Z,35.83
2022-09-07T18:05:18.636Z,32.88
2022-09-07T18:07:48.942Z,36.08
2022-09-07T18:10:18.356Z,34.42
2022-09-07T18:12:48.094Z,33.90
2022-09-07T18:15:17.489Z,36.20
2022-09-07T18:17:46.957Z,34.22
2022-09-07T18:20:16.174Z,37.85
2022-09-07T18:22:46.196Z,36.47
2022-09-07T18:25:15.990Z,31.45
2022-09-07T18:27:45.618Z,35.42
2022-09-07T18:30:15.172Z,37.53
2022-09-07T18:32:45.198Z,34.17
2022-09-07T18:35:14.280Z,30.08
2022-09-07T18:37:43.436Z,31.95
2022-09-07T18:40:12.856Z,37.85
2022-09-07T18:42:43.044Z,29.25
2022-09-07T18:45:28.277Z,31.00
2022-09-07T18:47:57.581Z,37.67
2022-09-07T18:50:27.100Z,29.00
2022-09-07T18:53:04.069Z,37.15
2022-09-07T18:55:43.492Z,42.35
2022-09-07T18:58:12.783Z,38.67
2022-09-07T19:00:45.865Z,33.47
2022-09-07T19:03:16.740Z,31.40
2022-09-07T19:05:50.619Z,29.50
2022-09-07T19:08:20.337Z,28.25
2022-09-07T19:10:50.018Z,26.50
2022-09-07T19:13:19.257Z,30.23
2022-09-07T19:15:48.660Z,26.08
2022-09-07T19:18:17.947Z,32.33
2022-09-07T19:20:47.248Z,25.65
2022-09-07T19:23:16.530Z,27.85
2022-09-07T19:25:45.868Z,24.80
2022-09-07T19:28:15.621Z,24.95
2022-09-07T19:30:44.891Z,33.65
2022-09-07T19:33:14.197Z,25.20
2022-09-07T19:35:43.557Z,27.52
2022-09-07T19:38:13.766Z,25.73
2022-09-07T19:40:42.988Z,26.52
2022-09-07T19:43:12.284Z,29.02
2022-09-07T19:45:41.650Z,24.27
2022-09-07T19:48:10.985Z,34.38
2022-09-07T19:50:40.281Z,31.77
2022-09-07T19:53:09.673Z,30.77
2022-09-07T19:55:38.960Z,35.28
2022-09-07T19:58:08.864Z,35.65
2022-09-07T20:00:42.825Z,33.70
2022-09-07T20:03:12.359Z,32.75
2022-09-07T20:05:44.732Z,27.98
2022-09-07T20:08:14.087Z,29.52
2022-09-07T20:10:43.423Z,26.85
2022-09-07T20:13:12.707Z,30.67
2022-09-07T20:15:43.615Z,29.77
2022-09-07T20:18:12.909Z,29.70
2022-09-07T20:20:42.166Z,27.88
2022-09-07T20:23:11.618Z,25.95
2022-09-07T20:25:40.927Z,26.38
2022-09-07T20:28:10.696Z,31.90
2022-09-07T20:30:45.035Z,31.52
2022-09-07T20:33:14.315Z,30.02
2022-09-07T20:35:44.831Z,27.77
2022-09-07T20:38:14.409Z,28.13
2022-09-07T20:40:56.159Z,29.95
2022-09-07T20:43:26.184Z,36.63
2022-09-07T20:45:59.500Z,32.75
2022-09-07T20:48:29.504Z,38.50
2022-09-07T20:51:00.677Z,39.47
2022-09-07T20:53:30.007Z,33.15
2022-09-07T20:56:04.529Z,29.83
2022-09-07T20:58:34.308Z,28.67
2022-09-07T21:01:04.012Z,29.70
2022-09-07T21:03:33.378Z,30.02
2022-09-07T21:06:07.780Z,32.63
2022-09-07T21:08:38.777Z,30.27
2022-09-07T21:11:14.071Z,29.90
2022-09-07T21:13:43.662Z,29.52
2022-09-07T21:16:17.869Z,27.73
2022-09-07T21:18:47.000Z,30.00
2022-09-07T21:21:20.445Z,32.70
2022-09-07T21:23:50.277Z,27.17
2022-09-07T21:26:22.811Z,32.75
2022-09-07T21:29:02.911Z,27.45
2022-09-07T21:31:33.702Z,30.33
2022-09-07T21:34:04.043Z,30.27
2022-09-07T21:36:33.099Z,37.85
2022-09-07T21:39:02.125Z,35.20
2022-09-07T21:41:31.603Z,35.65
2022-09-07T21:44:02.612Z,32.42
2022-09-07T21:46:33.727Z,33.05
2022-09-07T21:49:03.193Z,39.40
2022-09-07T21:51:33.118Z,40.30
2022-09-07T21:54:03.044Z,37.05
2022-09-07T21:56:33.355Z,40.50
2022-09-07T21:59:03.715Z,36.45
2022-09-07T22:01:33.512Z,34.03
2022-09-07T22:04:04.916Z,36.13
2022-09-07T22:06:35.327Z,32.92
2022-09-07T22:09:06.367Z,32.05
2022-09-07T22:11:35.890Z,34.38
2022-09-07T22:14:06.871Z,30.65
2022-09-07T22:16:36.882Z,32.75
2022-09-07T22:19:10.331Z,34.17
2022-09-07T22:21:39.980Z,30.33
2022-09-07T22:24:09.458Z,35.47
2022-09-07T22:26:40.252Z,29.67
2022-09-07T22:29:12.240Z,27.45
2022-09-07T22:31:42.990Z,30.40
2022-09-07T22:34:12.767Z,31.83
2022-09-07T22:36:44.537Z,40.38
2022-09-07T22:39:20.829Z,36.17
2022-09-07T22:41:50.148Z,31.75
2022-09-07T22:44:20.375Z,32.72
2022-09-07T22:46:49.941Z,35.72
2022-09-07T22:49:19.936Z,42.28
2022-09-07T22:51:49.262Z,34.15
2022-09-07T22:54:18.357Z,34.92
2022-09-07T22:56:47.413Z,32.30
2022-09-07T22:59:16.708Z,32.40
2022-09-07T23:01:47.017Z,33.60
2022-09-07T23:04:16.389Z,35.80
2022-09-07T23:06:45.640Z,34.30
2022-09-07T23:09:18.378Z,41.13
2022-09-07T23:11:49.134Z,28.38
2022-09-07T23:14:23.509Z,33.42
2022-09-07T23:16:52.841Z,31.38
2022-09-07T23:19:22.669Z,38.08
2022-09-07T23:21:51.711Z,31.48
2022-09-07T23:24:20.905Z,35.58
2022-09-07T23:26:50.306Z,31.15
2022-09-07T23:29:21.819Z,33.08
2022-09-07T23:31:50.983Z,34.75
2022-09-07T23:34:20.079Z,35.58
2022-09-07T23:36:49.081Z,28.85
2022-09-07T23:39:18.217Z,35.72
2022-09-07T23:41:47.223Z,33.63
2022-09-07T23:44:16.336Z,30.17
2022-09-07T23:46:45.433Z,37.00
2022-09-07T23:49:14.539Z,43.72
2022-09-07T23:51:43.590Z,43.72
2022-09-07T23:54:13.024Z,45.63
2022-09-07T23:56:42.148Z,35.28
2022-09-07T23:59:11.475Z,29.67
